createdAt,value
2018-09-24T00:11:25.342Z,0.80
2018-09-24T00:20:07.407Z,0.77
2018-09-24T00:28:57.471Z,0.70
2018-09-24T00:34:39.954Z,0.60
2018-09-24T00:40:11.827Z,0.88
2018-09-24T00:42:59.971Z,1.10
2018-09-24T00:57:35.291Z,0.80
2018-09-24T01:12:21.286Z,0.90
2018-09-24T01:33:22.099Z,0.77
2018-09-24T01:45:28.330Z,0.97
2018-09-24T02:06:38.994Z,1.80
2018-09-24T02:12:14.214Z,1.00
2018-09-24T02:15:11.698Z,1.27
2018-09-24T02:21:12.638Z,0.80
2018-09-24T02:29:39.778Z,1.40
2018-09-24T02:32:26.418Z,1.33
2018-09-24T02:38:06.942Z,1.20
2018-09-24T02:40:40.022Z,1.30
2018-09-24T02:46:20.858Z,1.30
2018-09-24T02:55:17.686Z,1.50
2018-09-24T03:04:07.583Z,1.83
2018-09-24T03:06:45.546Z,2.13
2018-09-24T03:12:27.523Z,1.50
2018-09-24T03:15:04.991Z,1.57
2018-09-24T03:18:02.871Z,1.50
2018-09-24T03:23:33.422Z,1.77
2018-09-24T03:26:20.964Z,1.30
2018-09-24T03:29:04.743Z,1.85
2018-09-24T03:31:44.266Z,1.50
2018-09-24T03:34:19.015Z,1.35
2018-09-24T03:36:54.206Z,1.50
2018-09-24T03:39:41.382Z,1.50
2018-09-24T03:42:12.183Z,1.37
2018-09-24T03:47:38.271Z,1.12
2018-09-24T03:50:09.154Z,1.37
2018-09-24T03:53:10.286Z,1.60
2018-09-24T03:55:50.817Z,1.40
2018-09-24T03:58:26.950Z,1.43
2018-09-24T04:01:13.346Z,2.77
2018-09-24T04:06:59.158Z,1.62
2018-09-24T04:09:38.770Z,2.07
2018-09-24T04:12:27.518Z,1.53
2018-09-24T04:15:23.954Z,1.85
2018-09-24T04:18:04.995Z,2.00
2018-09-24T04:23:42.938Z,2.20
2018-09-24T04:26:18.034Z,3.12
2018-09-24T04:28:57.594Z,2.60
2018-09-24T04:31:34.646Z,1.70
2018-09-24T04:34:17.074Z,3.37
2018-09-24T04:37:00.286Z,2.20
2018-09-24T04:39:54.910Z,2.10
2018-09-24T04:42:33.313Z,2.00
2018-09-24T04:45:08.418Z,2.20
2018-09-24T04:47:55.254Z,3.00
2018-09-24T04:50:35.533Z,2.10
2018-09-24T04:53:17.261Z,3.90
2018-09-24T04:55:52.482Z,2.47
2018-09-24T04:58:30.947Z,2.40
2018-09-24T05:01:07.006Z,2.43
2018-09-24T05:03:42.138Z,2.40
2018-09-24T05:06:25.042Z,2.87
2018-09-24T05:09:01.638Z,3.90
2018-09-24T05:11:36.646Z,3.10
2018-09-24T05:14:11.791Z,3.33
2018-09-24T05:16:51.830Z,2.80
2018-09-24T05:19:26.874Z,2.80
2018-09-24T05:22:03.906Z,2.87
2018-09-24T05:24:39.008Z,3.00
2018-09-24T05:27:20.145Z,2.80
2018-09-24T05:29:55.150Z,2.77
2018-09-24T05:32:32.197Z,3.25
2018-09-24T05:35:08.354Z,3.00
2018-09-24T05:37:47.870Z,2.73
2018-09-24T05:40:24.762Z,3.13
2018-09-24T05:43:00.966Z,2.67
2018-09-24T05:45:36.134Z,3.33
2018-09-24T05:48:11.258Z,3.70
2018-09-24T05:50:50.710Z,3.43
2018-09-24T05:53:25.817Z,3.50
2018-09-24T05:56:08.146Z,3.40
2018-09-24T05:58:45.394Z,4.10
2018-09-24T06:01:20.334Z,3.37
2018-09-24T06:04:02.278Z,3.23
2018-09-24T06:06:38.332Z,4.47
2018-09-24T06:09:14.395Z,3.17
2018-09-24T06:11:49.662Z,3.00
2018-09-24T06:14:25.694Z,3.50
2018-09-24T06:17:01.778Z,3.63
2018-09-24T06:19:37.946Z,3.33
2018-09-24T06:22:13.266Z,2.70
2018-09-24T06:24:53.046Z,3.57
2018-09-24T06:27:34.910Z,2.83
2018-09-24T06:30:11.286Z,3.13
2018-09-24T06:32:46.507Z,3.13
2018-09-24T06:35:23.582Z,3.00
2018-09-24T06:37:58.730Z,3.70
2018-09-24T06:40:36.934Z,2.90
2018-09-24T06:43:12.326Z,3.00
2018-09-24T06:45:48.347Z,3.17
2018-09-24T06:48:24.174Z,3.17
2018-09-24T06:50:58.954Z,2.90
2018-09-24T06:53:40.907Z,3.40
2018-09-24T06:56:16.838Z,3.40
2018-09-24T06:59:08.046Z,2.53
2018-09-24T07:01:46.799Z,3.40
2018-09-24T07:04:21.770Z,3.70
2018-09-24T07:07:02.770Z,2.93
2018-09-24T07:09:39.789Z,3.40
2018-09-24T07:12:21.338Z,3.13
2018-09-24T07:14:56.390Z,3.13
2018-09-24T07:17:37.642Z,4.43
2018-09-24T07:20:18.703Z,2.47
2018-09-24T07:22:53.994Z,2.70
2018-09-24T07:25:32.553Z,3.40
2018-09-24T07:28:08.720Z,3.10
2018-09-24T07:30:47.423Z,2.87
2018-09-24T07:33:23.461Z,3.77
2018-09-24T07:35:59.441Z,2.93
2018-09-24T07:38:34.455Z,3.73
2018-09-24T07:41:09.634Z,2.93
2018-09-24T07:43:45.719Z,3.30
2018-09-24T07:46:20.646Z,2.07
2018-09-24T07:48:55.550Z,3.00
2018-09-24T07:51:30.587Z,2.63
2018-09-24T07:54:13.498Z,2.73
2018-09-24T07:56:54.463Z,2.80
2018-09-24T07:59:30.354Z,3.50
2018-09-24T08:02:05.090Z,2.30
2018-09-24T08:04:40.035Z,2.70
2018-09-24T08:07:16.191Z,1.97
2018-09-24T08:09:57.138Z,2.23
2018-09-24T08:12:32.274Z,2.00
2018-09-24T08:15:07.399Z,2.40
2018-09-24T08:17:44.330Z,2.10
2018-09-24T08:20:27.338Z,2.63
2018-09-24T08:23:02.346Z,2.27
2018-09-24T08:25:37.390Z,2.93
2018-09-24T08:28:23.449Z,2.90
2018-09-24T08:30:58.265Z,2.60
2018-09-24T08:33:49.526Z,2.70
2018-09-24T08:36:24.645Z,2.50
2018-09-24T08:38:59.706Z,2.73
2018-09-24T08:41:34.818Z,2.80
2018-09-24T08:44:09.931Z,3.03
2018-09-24T08:46:51.622Z,2.13
2018-09-24T08:49:28.634Z,2.43
2018-09-24T08:52:04.662Z,2.33
2018-09-24T08:54:43.429Z,2.30
2018-09-24T08:57:23.738Z,2.20
2018-09-24T08:59:59.526Z,1.97
2018-09-24T09:02:35.736Z,2.13
2018-09-24T09:05:11.946Z,2.53
2018-09-24T09:07:52.686Z,1.70
2018-09-24T09:10:29.730Z,1.83
2018-09-24T09:13:05.661Z,2.60
2018-09-24T09:15:44.302Z,2.57
2018-09-24T09:18:21.540Z,2.10
2018-09-24T09:21:00.088Z,2.10
2018-09-24T09:23:36.062Z,1.97
2018-09-24T09:26:10.935Z,2.00
2018-09-24T09:28:49.389Z,3.33
2018-09-24T09:31:24.478Z,1.93
2018-09-24T09:34:03.093Z,2.10
2018-09-24T09:36:43.890Z,2.13
2018-09-24T09:39:22.702Z,1.63
2018-09-24T09:41:58.949Z,1.93
2018-09-24T09:44:35.129Z,1.60
2018-09-24T09:47:13.780Z,2.23
2018-09-24T09:49:48.854Z,2.03
2018-09-24T09:52:25.576Z,1.43
2018-09-24T09:55:11.514Z,2.00
2018-09-24T09:57:47.234Z,2.00
2018-09-24T10:00:22.849Z,2.20
2018-09-24T10:03:20.298Z,1.93
2018-09-24T10:05:56.546Z,2.10
2018-09-24T10:08:31.678Z,2.00
2018-09-24T10:11:10.745Z,1.93
2018-09-24T10:13:46.818Z,1.50
2018-09-24T10:16:21.729Z,2.20
2018-09-24T10:18:57.618Z,1.93
2018-09-24T10:21:36.108Z,2.10
2018-09-24T10:24:15.478Z,1.60
2018-09-24T10:26:51.547Z,1.90
2018-09-24T10:29:30.394Z,1.90
2018-09-24T10:32:05.246Z,2.10
2018-09-24T10:34:41.358Z,1.33
2018-09-24T10:37:16.494Z,1.70
2018-09-24T10:39:51.750Z,1.90
2018-09-24T10:42:28.814Z,1.50
2018-09-24T10:45:08.022Z,1.80
2018-09-24T10:47:44.194Z,2.40
2018-09-24T10:50:23.489Z,1.60
2018-09-24T10:52:58.539Z,2.57
2018-09-24T10:55:33.682Z,1.73
2018-09-24T10:58:09.678Z,1.43
2018-09-24T11:00:45.706Z,1.30
2018-09-24T11:03:22.646Z,1.50
2018-09-24T11:06:02.065Z,1.23
2018-09-24T11:08:38.957Z,1.37
2018-09-24T11:11:15.142Z,2.53
2018-09-24T11:13:52.329Z,1.40
2018-09-24T11:16:28.559Z,2.00
2018-09-24T11:19:03.445Z,1.37
2018-09-24T11:21:42.117Z,2.40
2018-09-24T11:24:17.221Z,1.60
2018-09-24T11:27:04.777Z,1.50
2018-09-24T11:29:40.026Z,2.10
2018-09-24T11:32:15.109Z,1.90
2018-09-24T11:34:50.225Z,1.60
2018-09-24T11:37:33.817Z,2.00
2018-09-24T11:40:08.797Z,1.50
2018-09-24T11:42:43.741Z,1.80
2018-09-24T11:45:18.764Z,2.20
2018-09-24T11:47:53.806Z,2.23
2018-09-24T11:50:29.793Z,1.77
2018-09-24T11:53:05.789Z,1.70
2018-09-24T11:55:41.961Z,1.40
2018-09-24T11:58:17.001Z,1.63
2018-09-24T12:00:53.141Z,1.80
2018-09-24T12:03:31.293Z,1.90
2018-09-24T12:06:06.541Z,1.33
2018-09-24T12:08:41.584Z,1.90
2018-09-24T12:11:23.193Z,1.70
2018-09-24T12:14:00.221Z,1.57
2018-09-24T12:16:35.334Z,1.80
2018-09-24T12:19:10.349Z,1.10
2018-09-24T12:21:45.157Z,1.60
2018-09-24T12:24:21.181Z,1.67
2018-09-24T12:27:20.370Z,1.90
2018-09-24T12:29:56.594Z,1.80
2018-09-24T12:32:31.513Z,1.50
2018-09-24T12:35:06.541Z,1.40
2018-09-24T12:37:41.618Z,1.60
2018-09-24T12:40:16.810Z,1.20
2018-09-24T12:42:56.042Z,1.00
2018-09-24T12:45:32.089Z,1.43
2018-09-24T12:48:07.007Z,1.80
2018-09-24T12:50:48.166Z,1.40
2018-09-24T12:53:25.213Z,1.83
2018-09-24T12:56:00.285Z,1.57
2018-09-24T12:58:36.390Z,1.40
2018-09-24T13:01:11.481Z,1.60
2018-09-24T13:03:50.461Z,1.40
2018-09-24T13:06:26.514Z,1.60
2018-09-24T13:09:02.817Z,1.90
2018-09-24T13:11:37.938Z,1.73
2018-09-24T13:14:14.041Z,1.10
2018-09-24T13:16:49.841Z,1.70
2018-09-24T13:19:25.937Z,1.40
2018-09-24T13:22:00.949Z,1.10
2018-09-24T13:24:35.929Z,1.20
2018-09-24T13:27:10.698Z,1.30
2018-09-24T13:29:48.869Z,1.60
2018-09-24T13:32:24.575Z,1.30
2018-09-24T13:35:00.561Z,1.70
2018-09-24T13:37:36.679Z,1.43
2018-09-24T13:40:11.609Z,1.10
2018-09-24T13:42:46.493Z,1.57
2018-09-24T13:45:21.766Z,1.60
2018-09-24T13:47:57.797Z,1.20
2018-09-24T13:50:34.913Z,1.27
2018-09-24T13:53:09.643Z,1.17
2018-09-24T13:55:54.537Z,1.30
2018-09-24T13:58:32.732Z,1.37
2018-09-24T14:01:07.725Z,1.93
2018-09-24T14:03:42.753Z,1.50
2018-09-24T14:06:17.665Z,1.50
2018-09-24T14:08:52.417Z,0.90
2018-09-24T14:11:29.325Z,1.57
2018-09-24T14:14:10.796Z,1.53
2018-09-24T14:16:56.407Z,1.33
2018-09-24T14:19:32.487Z,1.50
2018-09-24T14:22:07.785Z,1.10
2018-09-24T14:24:48.976Z,1.20
2018-09-24T14:27:29.606Z,1.83
2018-09-24T14:30:04.549Z,0.80
2018-09-24T14:32:44.133Z,1.50
2018-09-24T14:35:22.393Z,1.67
2018-09-24T14:37:57.517Z,1.47
2018-09-24T14:40:32.587Z,1.07
2018-09-24T14:43:07.617Z,1.40
2018-09-24T14:45:44.970Z,1.20
2018-09-24T14:48:20.014Z,1.40
2018-09-24T14:50:56.145Z,1.63
2018-09-24T14:53:31.053Z,1.20
2018-09-24T14:56:09.809Z,1.60
2018-09-24T14:58:48.877Z,1.70
2018-09-24T15:01:23.717Z,2.47
2018-09-24T15:04:02.285Z,1.47
2018-09-24T15:06:37.357Z,1.40
2018-09-24T15:09:13.578Z,1.70
2018-09-24T15:11:48.457Z,1.87
2018-09-24T15:14:26.461Z,2.90
2018-09-24T15:17:01.254Z,1.40
2018-09-24T15:19:36.057Z,1.70
2018-09-24T15:22:11.204Z,1.63
2018-09-24T15:24:47.098Z,1.80
2018-09-24T15:27:21.999Z,1.40
2018-09-24T15:29:58.990Z,1.93
2018-09-24T15:32:33.878Z,1.50
2018-09-24T15:35:13.134Z,1.40
2018-09-24T15:37:48.130Z,2.27
2018-09-24T15:40:26.089Z,1.73
2018-09-24T15:43:01.950Z,1.40
2018-09-24T15:45:37.033Z,1.67
2018-09-24T15:48:14.038Z,1.27
2018-09-24T15:50:49.106Z,2.10
2018-09-24T15:53:24.209Z,1.40
2018-09-24T15:55:59.245Z,2.07
2018-09-24T15:58:37.581Z,2.17
2018-09-24T16:01:12.789Z,1.23
2018-09-24T16:03:53.426Z,1.13
2018-09-24T16:06:31.437Z,1.20
2018-09-24T16:09:06.270Z,1.57
2018-09-24T16:11:44.745Z,1.30
2018-09-24T16:14:20.742Z,1.37
2018-09-24T16:16:57.529Z,1.53
2018-09-24T16:19:39.514Z,1.40
2018-09-24T16:22:14.763Z,1.33
2018-09-24T16:24:49.905Z,1.33
2018-09-24T16:27:25.869Z,1.50
2018-09-24T16:30:02.030Z,1.47
2018-09-24T16:32:37.178Z,1.27
2018-09-24T16:35:12.672Z,1.80
2018-09-24T16:37:47.901Z,1.90
2018-09-24T16:40:23.981Z,1.80
2018-09-24T16:43:00.801Z,1.30
2018-09-24T16:45:36.797Z,1.60
2018-09-24T16:48:12.905Z,1.70
2018-09-24T16:50:48.009Z,1.90
2018-09-24T16:53:24.025Z,1.40
2018-09-24T16:55:58.827Z,1.80
2018-09-24T16:58:35.717Z,1.67
2018-09-24T17:01:11.845Z,1.70
2018-09-24T17:03:46.756Z,2.20
2018-09-24T17:06:21.757Z,2.90
2018-09-24T17:08:56.753Z,2.10
2018-09-24T17:11:33.956Z,1.80
2018-09-24T17:14:09.989Z,1.77
2018-09-24T17:16:45.257Z,2.37
2018-09-24T17:19:20.529Z,1.73
2018-09-24T17:21:57.809Z,2.67
2018-09-24T17:24:32.907Z,2.67
2018-09-24T17:27:08.019Z,2.43
2018-09-24T17:29:43.180Z,2.60
2018-09-24T17:32:18.229Z,4.07
2018-09-24T17:34:53.301Z,2.67
2018-09-24T17:37:28.462Z,5.97
2018-09-24T17:40:03.521Z,3.50
2018-09-24T17:42:38.758Z,2.10
2018-09-24T17:45:19.681Z,1.73
2018-09-24T17:47:54.737Z,1.90
2018-09-24T17:50:29.757Z,2.00
2018-09-24T17:53:05.874Z,1.80
2018-09-24T17:55:42.101Z,2.20
2018-09-24T17:58:18.141Z,1.90
2018-09-24T18:00:53.244Z,2.43
2018-09-24T18:03:29.269Z,2.50
2018-09-24T18:06:04.419Z,6.00
2018-09-24T18:08:43.685Z,8.43
2018-09-24T18:11:18.669Z,6.77
2018-09-24T18:13:53.569Z,21.40
2018-09-24T18:16:29.277Z,10.73
2018-09-24T18:19:04.413Z,13.40
2018-09-24T18:21:56.255Z,10.23
2018-09-24T18:24:33.393Z,8.50
2018-09-24T18:27:09.552Z,10.07
2018-09-24T18:29:46.669Z,11.97
2018-09-24T18:32:21.821Z,10.13
2018-09-24T18:34:59.730Z,4.53
2018-09-24T18:37:35.739Z,2.10
2018-09-24T18:40:10.830Z,2.37
2018-09-24T18:42:46.867Z,2.40
2018-09-24T18:45:23.161Z,1.73
2018-09-24T18:48:00.284Z,2.50
2018-09-24T18:50:43.232Z,2.90
2018-09-24T18:53:18.453Z,3.52
2018-09-24T18:56:00.737Z,3.77
2018-09-24T18:58:36.971Z,3.40
2018-09-24T19:01:13.257Z,4.00
2018-09-24T19:03:48.152Z,3.53
2018-09-24T19:06:23.253Z,2.70
2018-09-24T19:08:58.389Z,2.93
2018-09-24T19:11:33.419Z,3.00
2018-09-24T19:14:12.013Z,2.40
2018-09-24T19:16:47.001Z,2.70
2018-09-24T19:19:23.008Z,2.40
2018-09-24T19:21:58.041Z,2.40
2018-09-24T19:24:33.203Z,2.42
2018-09-24T19:27:09.134Z,2.02
2018-09-24T19:29:46.209Z,2.20
2018-09-24T19:32:23.189Z,2.10
2018-09-24T19:34:59.125Z,2.50
2018-09-24T19:37:37.505Z,2.23
2018-09-24T19:40:13.381Z,2.93
2018-09-24T19:42:50.513Z,2.43
2018-09-24T19:45:25.658Z,2.40
2018-09-24T19:48:02.813Z,1.57
2018-09-24T19:50:38.825Z,2.17
2018-09-24T19:53:19.680Z,2.17
2018-09-24T19:55:54.845Z,2.07
2018-09-24T19:58:29.604Z,1.70
2018-09-24T20:01:06.592Z,1.60
2018-09-24T20:03:41.597Z,2.27
2018-09-24T20:06:16.789Z,1.87
2018-09-24T20:08:52.951Z,2.20
2018-09-24T20:11:30.192Z,1.43
2018-09-24T20:14:05.205Z,1.80
2018-09-24T20:16:42.166Z,2.37
2018-09-24T20:19:18.205Z,1.60
2018-09-24T20:21:55.370Z,1.93
2018-09-24T20:24:30.473Z,2.07
2018-09-24T20:27:05.629Z,1.80
2018-09-24T20:29:44.669Z,3.20
2018-09-24T20:32:22.917Z,2.80
2018-09-24T20:34:58.217Z,1.93
2018-09-24T20:37:33.238Z,2.20
2018-09-24T20:40:12.608Z,1.93
2018-09-24T20:42:47.525Z,1.80
2018-09-24T20:45:22.666Z,2.00
2018-09-24T20:47:58.921Z,2.53
2018-09-24T20:50:35.825Z,2.23
2018-09-24T20:53:11.941Z,2.97
2018-09-24T20:55:46.897Z,2.63
2018-09-24T20:58:22.012Z,2.67
2018-09-24T21:00:57.933Z,2.50
2018-09-24T21:03:34.821Z,2.43
2018-09-24T21:06:10.637Z,2.30
2018-09-24T21:08:49.585Z,2.47
2018-09-24T21:11:24.745Z,2.90
2018-09-24T21:14:03.292Z,3.70
2018-09-24T21:16:42.449Z,3.17
2018-09-24T21:19:17.521Z,2.83
2018-09-24T21:21:52.529Z,2.42
2018-09-24T21:24:27.661Z,4.40
2018-09-24T21:27:02.909Z,3.12
2018-09-24T21:29:39.921Z,3.00
2018-09-24T21:32:14.864Z,2.40
2018-09-24T21:34:51.985Z,2.70
2018-09-24T21:37:27.145Z,2.67
2018-09-24T21:40:05.944Z,2.25
2018-09-24T21:42:40.884Z,2.52
2018-09-24T21:45:18.025Z,2.55
2018-09-24T21:47:53.125Z,2.35
2018-09-24T21:50:32.828Z,2.95
2018-09-24T21:53:09.724Z,7.80
2018-09-24T21:55:47.845Z,4.17
2018-09-24T21:58:27.353Z,6.75
2018-09-24T22:01:07.076Z,6.70
2018-09-24T22:03:42.013Z,7.60
2018-09-24T22:06:18.273Z,7.50
2018-09-24T22:08:53.405Z,5.95
2018-09-24T22:11:28.869Z,4.78
2018-09-24T22:14:07.689Z,3.05
2018-09-24T22:16:42.645Z,2.67
2018-09-24T22:19:18.621Z,2.12
2018-09-24T22:21:55.493Z,1.57
2018-09-24T22:24:30.521Z,2.42
2018-09-24T22:27:07.788Z,2.15
2018-09-24T22:29:42.889Z,2.20
2018-09-24T22:32:24.587Z,2.40
2018-09-24T22:34:59.805Z,2.87
2018-09-24T22:37:34.828Z,4.15
2018-09-24T22:40:11.156Z,3.52
2018-09-24T22:42:46.076Z,3.00
2018-09-24T22:45:22.256Z,3.40
2018-09-24T22:47:59.553Z,4.40
2018-09-24T22:50:34.604Z,4.70
2018-09-24T22:53:13.100Z,3.25
2018-09-24T22:55:48.228Z,4.50
2018-09-24T22:58:23.204Z,5.20
2018-09-24T23:00:58.324Z,6.12
2018-09-24T23:03:34.436Z,4.40
2018-09-24T23:06:11.527Z,4.70
2018-09-24T23:08:46.600Z,4.15
2018-09-24T23:11:24.621Z,3.92
2018-09-24T23:13:59.836Z,3.40
2018-09-24T23:16:34.990Z,3.40
2018-09-24T23:19:09.910Z,4.55
2018-09-24T23:21:45.992Z,3.08
2018-09-24T23:24:21.981Z,3.20
2018-09-24T23:26:57.065Z,2.70
2018-09-24T23:29:33.132Z,2.85
2018-09-24T23:32:09.154Z,2.95
2018-09-24T23:34:45.236Z,3.35
2018-09-24T23:37:20.181Z,3.25
2018-09-24T23:39:55.330Z,2.60
2018-09-24T23:42:30.670Z,3.30
2018-09-24T23:45:06.371Z,2.40
2018-09-24T23:47:45.296Z,2.72
2018-09-24T23:50:22.303Z,2.70
2018-09-24T23:52:59.280Z,3.52
2018-09-24T23:55:37.829Z,6.58
2018-09-24T23:58:12.996Z,4.55
